Time,TemperatureF,DewpointF,PressureIn,WindDirection,WindDirectionDegrees,WindSpeedMPH,WindSpeedGustMPH,Humidity,HourlyPrecipIn,Conditions,Clouds,dailyrainin,SoftwareType,DateUTC
2013-09-22 00:03:00,51.1,48.2,29.61,NNW,337,4.3,-999.0,90,-99.99,,,0.00,Acu-Link.com,2013-09-22 04:03:00,
2013-09-22 00:18:00,50.7,47.6,29.61,WSW,247,2.7,-999.0,89,-99.99,,,0.00,Acu-Link.com,2013-09-22 04:18:00,
2013-09-22 00:33:00,50.2,46.8,29.62,WSW,247,3.1,-999.0,88,-99.99,,,0.00,Acu-Link.com,2013-09-22 04:33:00,
2013-09-22 00:49:00,49.8,46.4,29.62,NNW,337,2.7,-999.0,88,-99.99,,,0.00,Acu-Link.com,2013-09-22 04:49:00,
2013-09-22 01:04:00,49.5,46.4,29.62,NNW,337,2.7,-999.0,89,-99.99,,,0.00,Acu-Link.com,2013-09-22 05:04:00,
2013-09-22 01:19:00,49.6,47.1,29.61,WSW,247,4.7,-999.0,91,-99.99,,,0.00,Acu-Link.com,2013-09-22 05:19:00,
2013-09-22 01:34:00,49.6,47.1,29.62,NW,315,3.8,-999.0,91,-99.99,,,0.00,Acu-Link.com,2013-09-22 05:34:00,
2013-09-22 01:49:00,49.5,46.7,29.62,WNW,292,4.3,-999.0,90,-99.99,,,0.00,Acu-Link.com,2013-09-22 05:49:00,
2013-09-22 02:05:00,49.5,46.4,29.62,SSW,202,3.8,-999.0,89,-99.99,,,0.00,Acu-Link.com,2013-09-22 06:05:00,
2013-09-22 02:20:00,49.3,46.2,29.62,North,0,3.1,-999.0,89,-99.99,,,0.00,Acu-Link.com,2013-09-22 06:20:00,
2013-09-22 02:35:00,49.3,45.9,29.62,West,270,3.1,-999.0,88,-99.99,,,0.00,Acu-Link.com,2013-09-22 06:35:00,
2013-09-22 02:50:00,49.1,45.7,29.62,NNE,22,3.8,-999.0,88,-99.99,,,0.00,Acu-Link.com,2013-09-22 06:50:00,
2013-09-22 03:05:00,49.1,45.7,29.62,West,270,3.8,-999.0,88,-99.99,,,0.00,Acu-Link.com,2013-09-22 07:05:00,
2013-09-22 03:21:00,49.1,45.7,29.62,NW,315,6.3,-999.0,88,-99.99,,,0.00,Acu-Link.com,2013-09-22 07:21:00,
2013-09-22 03:36:00,48.9,45.5,29.62,WNW,292,3.1,-999.0,88,-99.99,,,0.00,Acu-Link.com,2013-09-22 07:36:00,
2013-09-22 03:51:00,48.9,45.5,29.62,WNW,292,3.8,-999.0,88,-99.99,,,0.00,Acu-Link.com,2013-09-22 07:51:00,
2013-09-22 04:08:00,48.9,45.5,29.63,NNW,337,4.3,-999.0,88,-99.99,,,0.00,Acu-Link.com,2013-09-22 08:08:00,
2013-09-22 04:24:00,48.9,45.8,29.63,WNW,292,3.8,-999.0,89,-99.99,,,0.00,Acu-Link.com,2013-09-22 08:24:00,
2013-09-22 04:39:00,48.9,45.8,29.63,SSW,202,2.7,-999.0,89,-99.99,,,0.00,Acu-Link.com,2013-09-22 08:39:00,
2013-09-22 04:54:00,48.9,45.8,29.64,SSW,202,5.1,-999.0,89,-99.99,,,0.00,Acu-Link.com,2013-09-22 08:54:00,
2013-09-22 05:09:00,48.7,45.6,29.65,West,270,3.1,-999.0,89,-99.99,,,0.00,Acu-Link.com,2013-09-22 09:09:00,
2013-09-22 05:25:00,48.6,45.5,29.65,SW,225,4.7,-999.0,89,-99.99,,,0.00,Acu-Link.com,2013-09-22 09:25:00,
2013-09-22 05:40:00,48.6,45.5,29.65,West,270,4.3,-999.0,89,-99.99,,,0.00,Acu-Link.com,2013-09-22 09:40:00,
2013-09-22 05:55:00,47.7,44.9,29.66,WNW,292,4.7,-999.0,90,-99.99,,,0.00,Acu-Link.com,2013-09-22 09:55:00,
2013-09-22 06:10:00,47.5,44.7,29.66,SW,225,5.8,-999.0,90,-99.99,,,0.00,Acu-Link.com,2013-09-22 10:10:00,
2013-09-22 06:25:00,47.3,44.8,29.66,WSW,247,3.8,-999.0,91,-99.99,,,0.00,Acu-Link.com,2013-09-22 10:25:00,
2013-09-22 06:41:00,47.1,44.6,29.67,West,270,4.7,-999.0,91,-99.99,,,0.00,Acu-Link.com,2013-09-22 10:41:00,
2013-09-22 06:56:00,47.1,44.6,29.68,West,270,3.8,-999.0,91,-99.99,,,0.00,Acu-Link.com,2013-09-22 10:56:00,
2013-09-22 07:11:00,47.1,44.6,29.68,SSW,202,3.8,-999.0,91,-99.99,,,0.00,Acu-Link.com,2013-09-22 11:11:00,
2013-09-22 07:26:00,47.3,44.8,29.69,SW,225,3.8,-999.0,91,-99.99,,,0.00,Acu-Link.com,2013-09-22 11:26:00,
2013-09-22 07:41:00,47.5,45.0,29.69,SSW,202,4.3,-999.0,91,-99.99,,,0.00,Acu-Link.com,2013-09-22 11:41:00,
2013-09-22 07:57:00,47.5,44.7,29.69,West,270,5.1,-999.0,90,-99.99,,,0.00,Acu-Link.com,2013-09-22 11:57:00,
2013-09-22 08:12:00,47.8,45.1,29.70,SSW,202,3.8,-999.0,90,-99.99,,,0.00,Acu-Link.com,2013-09-22 12:12:00,
2013-09-22 08:27:00,48.4,45.0,29.71,SW,225,5.1,-999.0,88,-99.99,,,0.00,Acu-Link.com,2013-09-22 12:27:00,
2013-09-22 08:42:00,48.7,44.7,29.71,WNW,292,6.7,-999.0,86,-99.99,,,0.00,Acu-Link.com,2013-09-22 12:42:00,
2013-09-22 08:57:00,48.7,44.4,29.71,NW,315,6.7,-999.0,85,-99.99,,,0.00,Acu-Link.com,2013-09-22 12:57:00,
2013-09-22 09:13:00,49.3,44.7,29.72,NNW,337,4.7,-999.0,84,-99.99,,,0.00,Acu-Link.com,2013-09-22 13:13:00,
2013-09-22 09:28:00,49.5,44.2,29.73,SSW,202,4.3,-999.0,82,-99.99,,,0.00,Acu-Link.com,2013-09-22 13:28:00,
2013-09-22 09:43:00,50.5,43.9,29.74,North,0,6.3,-999.0,78,-99.99,,,0.00,Acu-Link.com,2013-09-22 13:43:00,
2013-09-22 09:58:00,51.1,43.4,29.73,North,0,2.7,-999.0,75,-99.99,,,0.00,Acu-Link.com,2013-09-22 13:58:00,
2013-09-22 10:14:00,51.4,43.4,29.74,NNW,337,6.3,-999.0,74,-99.99,,,0.00,Acu-Link.com,2013-09-22 14:14:00,
2013-09-22 10:29:00,51.4,43.4,29.74,NNW,337,4.7,-999.0,74,-99.99,,,0.00,Acu-Link.com,2013-09-22 14:29:00,
2013-09-22 10:44:00,51.8,42.3,29.74,NW,315,4.7,-999.0,70,-99.99,,,0.00,Acu-Link.com,2013-09-22 14:44:00,
2013-09-22 10:59:00,51.4,42.0,29.75,NNW,337,7.4,-999.0,70,-99.99,,,0.00,Acu-Link.com,2013-09-22 14:59:00,
2013-09-22 11:14:00,50.9,42.2,29.75,WNW,292,4.7,-999.0,72,-99.99,,,0.00,Acu-Link.com,2013-09-22 15:14:00,
2013-09-22 11:30:00,51.3,41.8,29.75,NW,315,6.3,-999.0,70,-99.99,,,0.00,Acu-Link.com,2013-09-22 15:30:00,
2013-09-22 11:45:00,50.4,42.4,29.76,WNW,292,5.8,-999.0,74,-99.99,,,0.00,Acu-Link.com,2013-09-22 15:45:00,
2013-09-22 12:00:00,50.0,41.7,29.76,NNW,337,4.7,-999.0,73,-99.99,,,0.00,Acu-Link.com,2013-09-22 16:00:00,
2013-09-22 12:15:00,50.7,41.3,29.77,NNW,337,7.4,-999.0,70,-99.99,,,0.00,Acu-Link.com,2013-09-22 16:15:00,
2013-09-22 12:30:00,51.8,42.3,29.77,North,0,4.3,-999.0,70,-99.99,,,0.00,Acu-Link.com,2013-09-22 16:30:00,
2013-09-22 12:46:00,52.2,41.5,29.77,NW,315,5.1,-999.0,67,-99.99,,,0.00,Acu-Link.com,2013-09-22 16:46:00,
2013-09-22 13:01:00,51.6,41.8,29.77,North,0,4.7,-999.0,69,-99.99,,,0.00,Acu-Link.com,2013-09-22 17:01:00,
2013-09-22 13:16:00,50.9,41.5,29.78,NNW,337,11.4,-999.0,70,-99.99,,,0.00,Acu-Link.com,2013-09-22 17:16:00,
2013-09-22 13:31:00,51.4,41.6,29.78,West,270,6.3,-999.0,69,-99.99,,,0.00,Acu-Link.com,2013-09-22 17:31:00,
2013-09-22 13:46:00,52.0,41.8,29.78,South,180,8.9,-999.0,68,-99.99,,,0.00,Acu-Link.com,2013-09-22 17:46:00,
2013-09-22 14:01:00,51.1,41.3,29.78,North,0,6.7,-999.0,69,-99.99,,,0.00,Acu-Link.com,2013-09-22 18:01:00,
2013-09-22 14:17:00,51.8,42.3,29.78,WNW,292,4.7,-999.0,70,-99.99,,,0.00,Acu-Link.com,2013-09-22 18:17:00,
2013-09-22 14:32:00,50.9,41.1,29.78,SSW,202,4.7,-999.0,69,-99.99,,,0.00,Acu-Link.com,2013-09-22 18:32:00,
2013-09-22 14:47:00,52.7,41.3,29.78,NNW,337,5.8,-999.0,65,-99.99,,,0.00,Acu-Link.com,2013-09-22 18:47:00,
2013-09-22 15:02:00,52.2,41.5,29.78,NNW,337,8.3,-999.0,67,-99.99,,,0.00,Acu-Link.com,2013-09-22 19:02:00,
2013-09-22 15:17:00,52.0,40.6,29.78,West,270,6.7,-999.0,65,-99.99,,,0.00,Acu-Link.com,2013-09-22 19:17:00,
2013-09-22 15:33:00,51.4,42.0,29.78,NNW,337,6.7,-999.0,70,-99.99,,,0.00,Acu-Link.com,2013-09-22 19:33:00,
2013-09-22 15:48:00,53.2,41.4,29.78,NNW,337,5.8,-999.0,64,-99.99,,,0.00,Acu-Link.com,2013-09-22 19:48:00,
2013-09-22 16:03:00,52.2,41.9,29.78,North,0,9.4,-999.0,68,-99.99,,,0.00,Acu-Link.com,2013-09-22 20:03:00,
2013-09-22 16:18:00,53.4,41.6,29.78,West,270,7.4,-999.0,64,-99.99,,,0.00,Acu-Link.com,2013-09-22 20:18:00,
2013-09-22 16:33:00,51.6,41.0,29.79,NW,315,4.7,-999.0,67,-99.99,,,0.00,Acu-Link.com,2013-09-22 20:33:00,
2013-09-22 16:48:00,53.4,42.0,29.78,NW,315,9.8,-999.0,65,-99.99,,,0.00,Acu-Link.com,2013-09-22 20:48:00,
2013-09-22 17:04:00,51.3,41.1,29.79,NNW,337,5.8,-999.0,68,-99.99,,,0.00,Acu-Link.com,2013-09-22 21:04:00,
2013-09-22 17:19:00,53.1,42.0,29.79,SW,225,7.4,-999.0,66,-99.99,,,0.00,Acu-Link.com,2013-09-22 21:19:00,
2013-09-22 17:34:00,51.8,40.4,29.80,NW,315,7.8,-999.0,65,-99.99,,,0.00,Acu-Link.com,2013-09-22 21:34:00,
2013-09-22 17:49:00,49.6,40.6,29.81,NNW,337,5.8,-999.0,71,-99.99,,,0.00,Acu-Link.com,2013-09-22 21:49:00,
2013-09-22 18:04:00,48.9,40.7,29.81,NNW,337,5.1,-999.0,73,-99.99,,,0.00,Acu-Link.com,2013-09-22 22:04:00,
2013-09-22 18:20:00,49.5,41.2,29.82,NNW,337,4.7,-999.0,73,-99.99,,,0.00,Acu-Link.com,2013-09-22 22:20:00,
2013-09-22 18:35:00,48.7,40.5,29.82,NNW,337,6.3,-999.0,73,-99.99,,,0.00,Acu-Link.com,2013-09-22 22:35:00,
2013-09-22 18:50:00,48.4,40.1,29.82,NNW,337,6.3,-999.0,73,-99.99,,,0.00,Acu-Link.com,2013-09-22 22:50:00,
2013-09-22 19:05:00,48.0,39.8,29.82,NNW,337,4.7,-999.0,73,-99.99,,,0.00,Acu-Link.com,2013-09-22 23:05:00,
2013-09-22 19:20:00,47.7,39.8,29.83,North,0,5.1,-999.0,74,-99.99,,,0.00,Acu-Link.com,2013-09-22 23:20:00,
2013-09-22 19:36:00,47.5,40.3,29.83,NNW,337,5.8,-999.0,76,-99.99,,,0.00,Acu-Link.com,2013-09-22 23:36:00,
2013-09-22 19:51:00,47.5,40.6,29.84,NNW,337,3.8,-999.0,77,-99.99,,,0.00,Acu-Link.com,2013-09-22 23:51:00,
2013-09-22 20:06:00,47.1,40.6,29.85,NW,315,3.8,-999.0,78,-99.99,,,0.00,Acu-Link.com,2013-09-23 00:06:00,
2013-09-22 20:21:00,46.9,40.8,29.85,NNW,337,3.8,-999.0,79,-99.99,,,0.00,Acu-Link.com,2013-09-23 00:21:00,
2013-09-22 20:36:00,46.8,40.3,29.86,NNW,337,5.1,-999.0,78,-99.99,,,0.00,Acu-Link.com,2013-09-23 00:36:00,
2013-09-22 20:51:00,46.8,40.3,29.86,NNW,337,4.7,-999.0,78,-99.99,,,0.00,Acu-Link.com,2013-09-23 00:51:00,
2013-09-22 21:07:00,46.8,40.6,29.87,NNW,337,3.8,-999.0,79,-99.99,,,0.00,Acu-Link.com,2013-09-23 01:07:00,
2013-09-22 21:22:00,46.8,40.6,29.87,NW,315,4.3,-999.0,79,-99.99,,,0.00,Acu-Link.com,2013-09-23 01:22:00,
2013-09-22 21:37:00,46.6,40.4,29.87,NW,315,3.8,-999.0,79,-99.99,,,0.00,Acu-Link.com,2013-09-23 01:37:00,
2013-09-22 21:52:00,46.6,40.4,29.88,NNW,337,3.1,-999.0,79,-99.99,,,0.00,Acu-Link.com,2013-09-23 01:52:00,
2013-09-22 22:07:00,46.6,40.7,29.88,NNW,337,3.1,-999.0,80,-99.99,,,0.00,Acu-Link.com,2013-09-23 02:07:00,
2013-09-22 22:23:00,46.6,40.7,29.89,NW,315,3.1,-999.0,80,-99.99,,,0.00,Acu-Link.com,2013-09-23 02:23:00,
2013-09-22 22:38:00,46.6,41.1,29.88,WSW,247,3.8,-999.0,81,-99.99,,,0.00,Acu-Link.com,2013-09-23 02:38:00,
2013-09-22 22:53:00,46.6,40.7,29.88,WNW,292,3.8,-999.0,80,-99.99,,,0.00,Acu-Link.com,2013-09-23 02:53:00,
2013-09-22 23:08:00,46.6,40.4,29.89,SW,225,2.7,-999.0,79,-99.99,,,0.00,Acu-Link.com,2013-09-23 03:08:00,
2013-09-22 23:24:00,46.6,40.4,29.89,North,0,2.7,-999.0,79,-99.99,,,0.00,Acu-Link.com,2013-09-23 03:24:00,
2013-09-22 23:39:00,46.4,40.6,29.89,North,0,3.1,-999.0,80,-99.99,,,0.00,Acu-Link.com,2013-09-23 03:39:00,
2013-09-22 23:54:00,46.4,40.6,29.88,NNW,337,2.7,-999.0,80,-99.99,,,0.00,Acu-Link.com,2013-09-23 03:54:00,